sensor_id;sensor_type;location;lat;lon;timestamp;pressure;altitude;pressure_sealevel;temperature;humidity
53758;BME280;39674;59.860;30.672;2023-03-25T00:02:39;98427.44;;;3.69;100.00
53758;BME280;39674;59.860;30.672;2023-03-25T00:05:09;98416.44;;;3.64;100.00
53758;BME280;39674;59.860;30.672;2023-03-25T00:07:42;98412.53;;;3.72;100.00
53758;BME280;39674;59.860;30.672;2023-03-25T00:12:56;98410.47;;;3.77;100.00
53758;BME280;39674;59.860;30.672;2023-03-25T00:15:42;98403.22;;;3.82;100.00
53758;BME280;39674;59.860;30.672;2023-03-25T00:21:17;98399.66;;;3.83;100.00
53758;BME280;39674;59.860;30.672;2023-03-25T00:23:46;98396.66;;;3.75;100.00
53758;BME280;39674;59.860;30.672;2023-03-25T00:26:21;98384.16;;;3.80;100.00
53758;BME280;39674;59.860;30.672;2023-03-25T00:29:28;98390.06;;;3.83;100.00
53758;BME280;39674;59.860;30.672;2023-03-25T00:32:44;98392.38;;;3.88;100.00
53758;BME280;39674;59.860;30.672;2023-03-25T00:35:23;98384.44;;;3.90;100.00
53758;BME280;39674;59.860;30.672;2023-03-25T00:38:17;98388.56;;;3.94;100.00
53758;BME280;39674;59.860;30.672;2023-03-25T00:41:15;98379.59;;;3.98;100.00
53758;BME280;39674;59.860;30.672;2023-03-25T00:44:27;98384.44;;;4.04;100.00
53758;BME280;39674;59.860;30.672;2023-03-25T00:47:39;98382.47;;;4.08;100.00
53758;BME280;39674;59.860;30.672;2023-03-25T00:50:15;98394.41;;;4.12;100.00
53758;BME280;39674;59.860;30.672;2023-03-25T01:06:52;98350.69;;;4.43;100.00
53758;BME280;39674;59.860;30.672;2023-03-25T01:10:07;98343.56;;;4.45;100.00
53758;BME280;39674;59.860;30.672;2023-03-25T01:13:19;98345.06;;;4.49;100.00
53758;BME280;39674;59.860;30.672;2023-03-25T01:26:27;98320.75;;;4.61;100.00
53758;BME280;39674;59.860;30.672;2023-03-25T01:29:18;98332.47;;;4.69;100.00
53758;BME280;39674;59.860;30.672;2023-03-25T01:32:24;98333.41;;;4.68;100.00
53758;BME280;39674;59.860;30.672;2023-03-25T01:35:36;98338.41;;;4.71;100.00
53758;BME280;39674;59.860;30.672;2023-03-25T01:38:30;98352.25;;;4.73;100.00
53758;BME280;39674;59.860;30.672;2023-03-25T01:41:46;98346.84;;;4.76;100.00
53758;BME280;39674;59.860;30.672;2023-03-25T01:47:48;98344.53;;;4.84;100.00
53758;BME280;39674;59.860;30.672;2023-03-25T01:50:29;98348.06;;;4.83;100.00
53758;BME280;39674;59.860;30.672;2023-03-25T01:53:19;98342.03;;;4.82;100.00
53758;BME280;39674;59.860;30.672;2023-03-25T01:56:13;98348.81;;;4.85;100.00
53758;BME280;39674;59.860;30.672;2023-03-25T01:58:49;98349.88;;;4.82;100.00
53758;BME280;39674;59.860;30.672;2023-03-25T02:01:30;98353.31;;;4.83;100.00
53758;BME280;39674;59.860;30.672;2023-03-25T02:04:02;98351.44;;;4.85;100.00
53758;BME280;39674;59.860;30.672;2023-03-25T02:06:37;98338.66;;;4.80;100.00
53758;BME280;39674;59.860;30.672;2023-03-25T02:09:14;98340.97;;;4.85;100.00
53758;BME280;39674;59.860;30.672;2023-03-25T02:11:49;98340.03;;;4.86;100.00
53758;BME280;39674;59.860;30.672;2023-03-25T02:14:41;98343.94;;;4.93;100.00
53758;BME280;39674;59.860;30.672;2023-03-25T02:17:16;98346.88;;;5.02;100.00
53758;BME280;39674;59.860;30.672;2023-03-25T02:20:15;98343.31;;;5.03;100.00
53758;BME280;39674;59.860;30.672;2023-03-25T02:23:05;98344.97;;;5.04;100.00
53758;BME280;39674;59.860;30.672;2023-03-25T02:25:55;98338.50;;;5.09;100.00
53758;BME280;39674;59.860;30.672;2023-03-25T02:28:34;98356.41;;;5.16;100.00
53758;BME280;39674;59.860;30.672;2023-03-25T02:31:15;98361.53;;;5.17;100.00
53758;BME280;39674;59.860;30.672;2023-03-25T02:33:59;98358.44;;;5.25;100.00
53758;BME280;39674;59.860;30.672;2023-03-25T02:39:34;98364.31;;;5.28;100.00
53758;BME280;39674;59.860;30.672;2023-03-25T02:42:13;98366.06;;;5.28;100.00
53758;BME280;39674;59.860;30.672;2023-03-25T02:44:46;98361.47;;;5.32;100.00
53758;BME280;39674;59.860;30.672;2023-03-25T02:47:22;98363.03;;;5.34;100.00
53758;BME280;39674;59.860;30.672;2023-03-25T02:49:53;98357.16;;;5.30;100.00
53758;BME280;39674;59.860;30.672;2023-03-25T02:52:25;98358.66;;;5.35;100.00
53758;BME280;39674;59.860;30.672;2023-03-25T02:55:00;98361.78;;;5.40;100.00
53758;BME280;39674;59.860;30.672;2023-03-25T02:57:37;98363.25;;;5.44;100.00
53758;BME280;39674;59.860;30.672;2023-03-25T03:00:25;98360.44;;;5.47;100.00
53758;BME280;39674;59.860;30.672;2023-03-25T03:02:56;98353.00;;;5.41;100.00
53758;BME280;39674;59.860;30.672;2023-03-25T03:05:28;98356.56;;;5.40;100.00
53758;BME280;39674;59.860;30.672;2023-03-25T03:08:13;98367.03;;;5.40;100.00
53758;BME280;39674;59.860;30.672;2023-03-25T03:10:50;98363.88;;;5.35;100.00
53758;BME280;39674;59.860;30.672;2023-03-25T03:13:24;98365.00;;;5.30;100.00
53758;BME280;39674;59.860;30.672;2023-03-25T03:16:02;98365.53;;;5.36;100.00
53758;BME280;39674;59.860;30.672;2023-03-25T03:18:38;98373.50;;;5.34;100.00
53758;BME280;39674;59.860;30.672;2023-03-25T03:21:18;98360.72;;;5.29;100.00
53758;BME280;39674;59.860;30.672;2023-03-25T03:23:55;98372.16;;;5.28;100.00
53758;BME280;39674;59.860;30.672;2023-03-25T03:26:31;98375.69;;;5.27;100.00
53758;BME280;39674;59.860;30.672;2023-03-25T03:29:06;98371.41;;;5.26;100.00
53758;BME280;39674;59.860;30.672;2023-03-25T03:31:43;98374.97;;;5.25;100.00
53758;BME280;39674;59.860;30.672;2023-03-25T03:34:19;98374.97;;;5.25;100.00
53758;BME280;39674;59.860;30.672;2023-03-25T03:36:50;98375.38;;;5.19;100.00
53758;BME280;39674;59.860;30.672;2023-03-25T03:39:22;98373.91;;;5.15;100.00
53758;BME280;39674;59.860;30.672;2023-03-25T03:41:59;98374.09;;;5.12;100.00
53758;BME280;39674;59.860;30.672;2023-03-25T03:44:34;98372.63;;;5.08;100.00
53758;BME280;39674;59.860;30.672;2023-03-25T03:47:06;98372.63;;;5.08;100.00
53758;BME280;39674;59.860;30.672;2023-03-25T03:49:38;98385.16;;;5.03;100.00
53758;BME280;39674;59.860;30.672;2023-03-25T03:52:11;98383.16;;;4.93;100.00
53758;BME280;39674;59.860;30.672;2023-03-25T03:54:44;98386.94;;;4.89;100.00
53758;BME280;39674;59.860;30.672;2023-03-25T03:57:18;98391.59;;;4.84;100.00
53758;BME280;39674;59.860;30.672;2023-03-25T03:59:48;98395.16;;;4.83;100.00
53758;BME280;39674;59.860;30.672;2023-03-25T04:02:19;98395.16;;;4.83;100.00
53758;BME280;39674;59.860;30.672;2023-03-25T04:04:53;98397.69;;;4.85;100.00
53758;BME280;39674;59.860;30.672;2023-03-25T04:07:28;98384.31;;;4.89;100.00
53758;BME280;39674;59.860;30.672;2023-03-25T04:10:08;98403.56;;;4.88;100.00
53758;BME280;39674;59.860;30.672;2023-03-25T04:12:43;98399.56;;;4.82;100.00
53758;BME280;39674;59.860;30.672;2023-03-25T04:15:13;98398.53;;;4.85;100.00
53758;BME280;39674;59.860;30.672;2023-03-25T04:17:43;98403.56;;;4.88;100.00
53758;BME280;39674;59.860;30.672;2023-03-25T04:20:13;98410.13;;;4.81;100.00
53758;BME280;39674;59.860;30.672;2023-03-25T04:22:44;98416.06;;;4.83;100.00
53758;BME280;39674;59.860;30.672;2023-03-25T04:25:12;98412.63;;;4.82;100.00
53758;BME280;39674;59.860;30.672;2023-03-25T04:27:46;98405.72;;;4.81;100.00
53758;BME280;39674;59.860;30.672;2023-03-25T04:30:15;98418.63;;;4.85;100.00
53758;BME280;39674;59.860;30.672;2023-03-25T04:32:45;98417.97;;;4.81;100.00
53758;BME280;39674;59.860;30.672;2023-03-25T04:35:14;98417.75;;;4.84;100.00
53758;BME280;39674;59.860;30.672;2023-03-25T04:37:43;98411.59;;;4.85;100.00
53758;BME280;39674;59.860;30.672;2023-03-25T04:40:14;98400.19;;;4.86;100.00
53758;BME280;39674;59.860;30.672;2023-03-25T04:42:46;98407.28;;;4.84;100.00
53758;BME280;39674;59.860;30.672;2023-03-25T04:45:14;98391.41;;;4.87;100.00
53758;BME280;39674;59.860;30.672;2023-03-25T04:47:43;98393.09;;;4.88;100.00
53758;BME280;39674;59.860;30.672;2023-03-25T04:50:15;98385.97;;;4.90;100.00
53758;BME280;39674;59.860;30.672;2023-03-25T04:52:49;98392.69;;;4.94;100.00
53758;BME280;39674;59.860;30.672;2023-03-25T04:55:18;98395.84;;;5.00;100.00
53758;BME280;39674;59.860;30.672;2023-03-25T04:57:49;98393.16;;;5.14;100.00
53758;BME280;39674;59.860;30.672;2023-03-25T05:00:19;98393.81;;;5.18;100.00
53758;BME280;39674;59.860;30.672;2023-03-25T05:02:50;98397.13;;;5.20;100.00
53758;BME280;39674;59.860;30.672;2023-03-25T05:05:22;98391.25;;;5.16;100.00
53758;BME280;39674;59.860;30.672;2023-03-25T05:07:51;98391.47;;;5.13;100.00
53758;BME280;39674;59.860;30.672;2023-03-25T05:10:21;98391.66;;;5.10;100.00
53758;BME280;39674;59.860;30.672;2023-03-25T05:12:58;98399.03;;;5.18;100.00
53758;BME280;39674;59.860;30.672;2023-03-25T05:15:29;98401.72;;;5.16;100.00
53758;BME280;39674;59.860;30.672;2023-03-25T05:18:00;98388.75;;;5.14;100.00
53758;BME280;39674;59.860;30.672;2023-03-25T05:20:30;98391.47;;;5.13;100.00
53758;BME280;39674;59.860;30.672;2023-03-25T05:23:00;98392.41;;;5.12;100.00
53758;BME280;39674;59.860;30.672;2023-03-25T05:25:30;98392.81;;;5.06;100.00
53758;BME280;39674;59.860;30.672;2023-03-25T05:28:04;98392.72;;;5.07;100.00
53758;BME280;39674;59.860;30.672;2023-03-25T05:30:46;98386.84;;;5.04;100.00
53758;BME280;39674;59.860;30.672;2023-03-25T05:33:15;98395.03;;;5.12;100.00
53758;BME280;39674;59.860;30.672;2023-03-25T05:35:44;98386.03;;;5.16;100.00
53758;BME280;39674;59.860;30.672;2023-03-25T05:38:14;98387.94;;;5.14;100.00
53758;BME280;39674;59.860;30.672;2023-03-25T05:40:45;98388.75;;;5.14;100.00
53758;BME280;39674;59.860;30.672;2023-03-25T05:43:17;98386.25;;;5.13;100.00
53758;BME280;39674;59.860;30.672;2023-03-25T05:45:48;98391.91;;;5.20;100.00
53758;BME280;39674;59.860;30.672;2023-03-25T05:48:16;98391.06;;;5.19;100.00
53758;BME280;39674;59.860;30.672;2023-03-25T05:50:49;98380.38;;;5.22;100.00
53758;BME280;39674;59.860;30.672;2023-03-25T05:53:24;98366.16;;;5.26;100.00
53758;BME280;39674;59.860;30.672;2023-03-25T05:56:04;98376.63;;;5.26;100.00
53758;BME280;39674;59.860;30.672;2023-03-25T05:58:35;98383.34;;;5.30;100.00
53758;BME280;39674;59.860;30.672;2023-03-25T06:01:04;98381.25;;;5.36;100.00
53758;BME280;39674;59.860;30.672;2023-03-25T06:03:32;98382.09;;;5.36;100.00
53758;BME280;39674;59.860;30.672;2023-03-25T06:06:02;98369.94;;;5.35;100.00
53758;BME280;39674;59.860;30.672;2023-03-25T06:08:31;98375.41;;;5.45;100.00
53758;BME280;39674;59.860;30.672;2023-03-25T06:11:02;98375.16;;;5.48;100.00
53758;BME280;39674;59.860;30.672;2023-03-25T06:13:30;98376.03;;;5.49;100.00
53758;BME280;39674;59.860;30.672;2023-03-25T06:16:02;98378.75;;;5.47;100.00
53758;BME280;39674;59.860;30.672;2023-03-25T06:18:31;98375.41;;;5.45;100.00
53758;BME280;39674;59.860;30.672;2023-03-25T06:21:00;98373.72;;;5.44;100.00
53758;BME280;39674;59.860;30.672;2023-03-25T06:23:30;98368.91;;;5.38;100.00
53758;BME280;39674;59.860;30.672;2023-03-25T06:26:02;98375.41;;;5.45;100.00
53758;BME280;39674;59.860;30.672;2023-03-25T06:28:30;98371.84;;;5.46;100.00
53758;BME280;39674;59.860;30.672;2023-03-25T06:31:01;98372.03;;;5.43;100.00
53758;BME280;39674;59.860;30.672;2023-03-25T06:33:38;98374.56;;;5.44;100.00
53758;BME280;39674;59.860;30.672;2023-03-25T06:36:07;98363.88;;;5.47;100.00
53758;BME280;39674;59.860;30.672;2023-03-25T06:38:38;98373.41;;;5.49;100.00
53758;BME280;39674;59.860;30.672;2023-03-25T06:41:32;98367.00;;;5.53;100.00
53758;BME280;39674;59.860;30.672;2023-03-25T06:44:18;98360.72;;;5.55;100.00
53758;BME280;39674;59.860;30.672;2023-03-25T06:47:11;98353.84;;;5.54;100.00
53758;BME280;39674;59.860;30.672;2023-03-25T06:49:46;98350.25;;;5.55;100.00
53758;BME280;39674;59.860;30.672;2023-03-25T06:52:30;98344.06;;;5.56;100.00
53758;BME280;39674;59.860;30.672;2023-03-25T06:55:04;98346.81;;;5.55;100.00
53758;BME280;39674;59.860;30.672;2023-03-25T06:57:54;98345.25;;;5.52;100.00
53758;BME280;39674;59.860;30.672;2023-03-25T07:00:27;98334.47;;;5.57;100.00
53758;BME280;39674;59.860;30.672;2023-03-25T07:03:07;98346.69;;;5.56;100.00
53758;BME280;39674;59.860;30.672;2023-03-25T07:05:37;98346.69;;;5.56;100.00
53758;BME280;39674;59.860;30.672;2023-03-25T07:08:17;98338.84;;;5.56;100.00
53758;BME280;39674;59.860;30.672;2023-03-25T07:10:49;98343.97;;;5.58;100.00
53758;BME280;39674;59.860;30.672;2023-03-25T07:13:38;98340.50;;;5.57;100.00
53758;BME280;39674;59.860;30.672;2023-03-25T07:16:39;98342.19;;;5.58;100.00
53758;BME280;39674;59.860;30.672;2023-03-25T07:26:00;98321.75;;;5.76;100.00
53758;BME280;39674;59.860;30.672;2023-03-25T07:28:53;98319.03;;;5.78;100.00
53758;BME280;39674;59.860;30.672;2023-03-25T07:31:41;98325.19;;;5.77;100.00
53758;BME280;39674;59.860;30.672;2023-03-25T07:34:50;98312.22;;;5.75;100.00
53758;BME280;39674;59.860;30.672;2023-03-25T07:37:18;98306.88;;;5.77;100.00
53758;BME280;39674;59.860;30.672;2023-03-25T07:39:48;98295.34;;;5.79;100.00
53758;BME280;39674;59.860;30.672;2023-03-25T07:42:19;98301.44;;;5.80;100.00
53758;BME280;39674;59.860;30.672;2023-03-25T07:45:08;98290.50;;;5.86;100.00
53758;BME280;39674;59.860;30.672;2023-03-25T07:47:38;98280.84;;;5.87;100.00
53758;BME280;39674;59.860;30.672;2023-03-25T07:50:08;98286.22;;;5.85;100.00
53758;BME280;39674;59.860;30.672;2023-03-25T07:52:37;98286.72;;;5.90;100.00
53758;BME280;39674;59.860;30.672;2023-03-25T07:55:08;98280.41;;;5.93;100.00
53758;BME280;39674;59.860;30.672;2023-03-25T07:57:40;98266.50;;;5.92;100.00
53758;BME280;39674;59.860;30.672;2023-03-25T08:00:21;98275.06;;;5.94;100.00
53758;BME280;39674;59.860;30.672;2023-03-25T08:03:06;98277.69;;;5.94;100.00
53758;BME280;39674;59.860;30.672;2023-03-25T08:05:42;98268.25;;;5.92;100.00
53758;BME280;39674;59.860;30.672;2023-03-25T08:08:16;98270.78;;;5.93;100.00
53758;BME280;39674;59.860;30.672;2023-03-25T08:10:52;98270.56;;;5.97;100.00
53758;BME280;39674;59.860;30.672;2023-03-25T08:13:25;98274.34;;;5.92;100.00
53758;BME280;39674;59.860;30.672;2023-03-25T08:15:54;98255.78;;;5.95;100.00
53758;BME280;39674;59.860;30.672;2023-03-25T08:18:22;98267.19;;;5.94;100.00
53758;BME280;39674;59.860;30.672;2023-03-25T08:20:56;98253.00;;;5.99;100.00
53758;BME280;39674;59.860;30.672;2023-03-25T08:23:28;98261.97;;;5.94;100.00
53758;BME280;39674;59.860;30.672;2023-03-25T08:26:00;98262.56;;;5.98;100.00
53758;BME280;39674;59.860;30.672;2023-03-25T08:28:33;98265.56;;;5.93;100.00
53758;BME280;39674;59.860;30.672;2023-03-25T08:31:04;98265.56;;;5.93;100.00
53758;BME280;39674;59.860;30.672;2023-03-25T08:33:33;98256.97;;;5.91;100.00
53758;BME280;39674;59.860;30.672;2023-03-25T08:36:05;98249.91;;;5.92;100.00
53758;BME280;39674;59.860;30.672;2023-03-25T08:38:35;98260.50;;;5.90;100.00
53758;BME280;39674;59.860;30.672;2023-03-25T08:41:03;98267.75;;;5.87;100.00
53758;BME280;39674;59.860;30.672;2023-03-25T08:43:37;98264.75;;;5.80;100.00
53758;BME280;39674;59.860;30.672;2023-03-25T08:46:05;98265.38;;;5.71;100.00
53758;BME280;39674;59.860;30.672;2023-03-25T08:48:34;98270.25;;;5.64;100.00
53758;BME280;39674;59.860;30.672;2023-03-25T08:51:03;98282.16;;;5.55;100.00
53758;BME280;39674;59.860;30.672;2023-03-25T08:53:37;98288.38;;;5.54;100.00
53758;BME280;39674;59.860;30.672;2023-03-25T08:56:06;98277.38;;;5.49;100.00
53758;BME280;39674;59.860;30.672;2023-03-25T08:58:37;98277.59;;;5.46;100.00
53758;BME280;39674;59.860;30.672;2023-03-25T09:01:10;98283.88;;;5.43;100.00
53758;BME280;39674;59.860;30.672;2023-03-25T09:03:39;98284.94;;;5.41;100.00
53758;BME280;39674;59.860;30.672;2023-03-25T09:06:10;98285.34;;;5.35;100.00
53758;BME280;39674;59.860;30.672;2023-03-25T09:08:39;98285.13;;;5.38;100.00
53758;BME280;39674;59.860;30.672;2023-03-25T09:11:07;98288.91;;;5.34;100.00
53758;BME280;39674;59.860;30.672;2023-03-25T09:13:39;98285.56;;;5.32;100.00
53758;BME280;39674;59.860;30.672;2023-03-25T09:16:08;98285.78;;;5.28;100.00
53758;BME280;39674;59.860;30.672;2023-03-25T09:18:42;98285.03;;;5.26;100.00
53758;BME280;39674;59.860;30.672;2023-03-25T09:21:11;98296.44;;;5.25;100.00
53758;BME280;39674;59.860;30.672;2023-03-25T09:23:41;98298.53;;;5.20;100.00
53758;BME280;39674;59.860;30.672;2023-03-25T09:26:09;98302.50;;;5.13;100.00
53758;BME280;39674;59.860;30.672;2023-03-25T09:28:43;98308.38;;;5.17;100.00
53758;BME280;39674;59.860;30.672;2023-03-25T09:31:13;98319.03;;;5.13;100.00
53758;BME280;39674;59.860;30.672;2023-03-25T09:33:41;98313.59;;;5.04;100.00
53758;BME280;39674;59.860;30.672;2023-03-25T09:36:13;98323.81;;;4.94;100.00
53758;BME280;39674;59.860;30.672;2023-03-25T09:38:52;98325.72;;;4.92;100.00
53758;BME280;39674;59.860;30.672;2023-03-25T09:41:41;98319.88;;;4.88;100.00
53758;BME280;39674;59.860;30.672;2023-03-25T09:44:18;98323.41;;;4.87;100.00
53758;BME280;39674;59.860;30.672;2023-03-25T09:46:50;98327.91;;;4.85;100.00
53758;BME280;39674;59.860;30.672;2023-03-25T09:49:25;98331.16;;;4.89;100.00
53758;BME280;39674;59.860;30.672;2023-03-25T09:52:09;98321.31;;;4.92;100.00
53758;BME280;39674;59.860;30.672;2023-03-25T09:54:42;98324.88;;;4.91;100.00
53758;BME280;39674;59.860;30.672;2023-03-25T09:57:12;98341.31;;;4.93;100.00
53758;BME280;39674;59.860;30.672;2023-03-25T09:59:46;98341.84;;;4.98;100.00
53758;BME280;39674;59.860;30.672;2023-03-25T10:02:22;98348.75;;;5.00;100.00
53758;BME280;39674;59.860;30.672;2023-03-25T10:05:26;98357.13;;;5.05;100.00
53758;BME280;39674;59.860;30.672;2023-03-25T10:08:17;98346.66;;;5.05;100.00
53758;BME280;39674;59.860;30.672;2023-03-25T10:10:54;98357.03;;;5.06;100.00
53758;BME280;39674;59.860;30.672;2023-03-25T10:13:29;98363.00;;;5.08;100.00
53758;BME280;39674;59.860;30.672;2023-03-25T10:16:07;98371.91;;;5.06;100.00
53758;BME280;39674;59.860;30.672;2023-03-25T10:18:50;98369.47;;;5.03;100.00
53758;BME280;39674;59.860;30.672;2023-03-25T10:21:22;98384.56;;;4.99;100.00
53758;BME280;39674;59.860;30.672;2023-03-25T10:23:54;98394.56;;;4.92;100.00
53758;BME280;39674;59.860;30.672;2023-03-25T10:26:27;98406.06;;;4.90;100.00
53758;BME280;39674;59.860;30.672;2023-03-25T10:29:00;98407.13;;;4.87;100.00
53758;BME280;39674;59.860;30.672;2023-03-25T10:31:35;98421.88;;;4.88;100.00
53758;BME280;39674;59.860;30.672;2023-03-25T10:34:09;98414.22;;;4.85;100.00
53758;BME280;39674;59.860;30.672;2023-03-25T10:36:44;98426.75;;;4.80;100.00
53758;BME280;39674;59.860;30.672;2023-03-25T10:39:20;98443.78;;;4.73;100.00
53758;BME280;39674;59.860;30.672;2023-03-25T10:41:50;98448.56;;;4.66;100.00
53758;BME280;39674;59.860;30.672;2023-03-25T10:44:23;98458.19;;;4.51;100.00
53758;BME280;39674;59.860;30.672;2023-03-25T10:46:59;98465.69;;;4.43;100.00
53758;BME280;39674;59.860;30.672;2023-03-25T10:49:33;98462.81;;;4.33;100.00
53758;BME280;39674;59.860;30.672;2023-03-25T10:52:12;98484.66;;;4.17;100.00
53758;BME280;39674;59.860;30.672;2023-03-25T10:54:50;98487.16;;;4.05;100.00
53758;BME280;39674;59.860;30.672;2023-03-25T10:57:21;98500.31;;;4.03;100.00
53758;BME280;39674;59.860;30.672;2023-03-25T11:02:47;98518.41;;;3.92;100.00
53758;BME280;39674;59.860;30.672;2023-03-25T11:05:23;98488.16;;;3.73;100.00
53758;BME280;39674;59.860;30.672;2023-03-25T11:07:56;98526.03;;;3.80;100.00
53758;BME280;39674;59.860;30.672;2023-03-25T11:10:27;98530.28;;;3.67;100.00
53758;BME280;39674;59.860;30.672;2023-03-25T11:13:00;98538.19;;;3.65;100.00
53758;BME280;39674;59.860;30.672;2023-03-25T11:15:58;98550.41;;;3.65;100.00
53758;BME280;39674;59.860;30.672;2023-03-25T11:19:01;98555.31;;;3.55;100.00
53758;BME280;39674;59.860;30.672;2023-03-25T11:21:40;98561.66;;;3.51;100.00
53758;BME280;39674;59.860;30.672;2023-03-25T11:24:33;98563.75;;;3.44;100.00
53758;BME280;39674;59.860;30.672;2023-03-25T11:27:37;98579.34;;;3.46;100.00
53758;BME280;39674;59.860;30.672;2023-03-25T11:30:14;98582.88;;;3.45;100.00
53758;BME280;39674;59.860;30.672;2023-03-25T11:32:49;98580.19;;;3.46;100.00
53758;BME280;39674;59.860;30.672;2023-03-25T11:35:29;98593.47;;;3.42;100.00
53758;BME280;39674;59.860;30.672;2023-03-25T11:38:12;98595.00;;;3.46;100.00
53758;BME280;39674;59.860;30.672;2023-03-25T11:40:51;98609.91;;;3.44;100.00
53758;BME280;39674;59.860;30.672;2023-03-25T11:43:21;98620.25;;;3.45;100.00
53758;BME280;39674;59.860;30.672;2023-03-25T11:45:57;98633.56;;;3.41;100.00
53758;BME280;39674;59.860;30.672;2023-03-25T11:48:37;98641.47;;;3.39;100.00
53758;BME280;39674;59.860;30.672;2023-03-25T11:51:10;98611.84;;;3.24;100.00
53758;BME280;39674;59.860;30.672;2023-03-25T11:53:43;98651.81;;;3.41;100.00
53758;BME280;39674;59.860;30.672;2023-03-25T11:56:14;98654.44;;;3.41;100.00
53758;BME280;39674;59.860;30.672;2023-03-25T11:58:51;98659.66;;;3.41;100.00
53758;BME280;39674;59.860;30.672;2023-03-25T12:01:40;98679.84;;;3.37;100.00
53758;BME280;39674;59.860;30.672;2023-03-25T12:04:21;98685.75;;;3.41;100.00
53758;BME280;39674;59.860;30.672;2023-03-25T12:07:05;98683.41;;;3.36;100.00
53758;BME280;39674;59.860;30.672;2023-03-25T12:09:37;98687.75;;;3.35;100.00
53758;BME280;39674;59.860;30.672;2023-03-25T12:12:28;98692.31;;;3.32;100.00
53758;BME280;39674;59.860;30.672;2023-03-25T12:15:11;98705.44;;;3.30;100.00
53758;BME280;39674;59.860;30.672;2023-03-25T12:17:59;98720.91;;;3.33;100.00
53758;BME280;39674;59.860;30.672;2023-03-25T12:20:40;98727.31;;;3.28;100.00
53758;BME280;39674;59.860;30.672;2023-03-25T12:23:32;98735.75;;;3.33;100.00
53758;BME280;39674;59.860;30.672;2023-03-25T12:26:10;98755.03;;;3.30;100.00
53758;BME280;39674;59.860;30.672;2023-03-25T12:28:45;98757.44;;;3.33;100.00
53758;BME280;39674;59.860;30.672;2023-03-25T12:31:25;98762.84;;;3.30;100.00
53758;BME280;39674;59.860;30.672;2023-03-25T12:34:06;98773.28;;;3.30;100.00
53758;BME280;39674;59.860;30.672;2023-03-25T12:36:45;98776.81;;;3.29;100.00
53758;BME280;39674;59.860;30.672;2023-03-25T12:39:26;98794.63;;;3.21;100.00
53758;BME280;39674;59.860;30.672;2023-03-25T12:42:15;98796.31;;;3.22;100.00
53758;BME280;39674;59.860;30.672;2023-03-25T12:44:56;98808.75;;;3.17;100.00
53758;BME280;39674;59.860;30.672;2023-03-25T12:47:34;98827.34;;;3.11;100.00
53758;BME280;39674;59.860;30.672;2023-03-25T12:50:18;98826.66;;;3.07;100.00
53758;BME280;39674;59.860;30.672;2023-03-25T12:52:58;98840.00;;;3.01;100.00
53758;BME280;39674;59.860;30.672;2023-03-25T12:58:44;98853.56;;;2.90;100.00
53758;BME280;39674;59.860;30.672;2023-03-25T13:01:27;98856.34;;;2.87;100.00
53758;BME280;39674;59.860;30.672;2023-03-25T13:04:11;98877.44;;;2.82;100.00
53758;BME280;39674;59.860;30.672;2023-03-25T13:06:53;98881.03;;;2.80;100.00
53758;BME280;39674;59.860;30.672;2023-03-25T13:09:29;98877.66;;;2.78;100.00
53758;BME280;39674;59.860;30.672;2023-03-25T13:12:04;98886.91;;;2.66;100.00
53758;BME280;39674;59.860;30.672;2023-03-25T13:14:49;98896.28;;;2.70;100.00
53758;BME280;39674;59.860;30.672;2023-03-25T13:17:25;98917.34;;;2.65;100.00
53758;BME280;39674;59.860;30.672;2023-03-25T13:19:58;98926.22;;;2.61;100.00
53758;BME280;39674;59.860;30.672;2023-03-25T13:22:33;98924.97;;;2.51;100.00
53758;BME280;39674;59.860;30.672;2023-03-25T13:25:26;98940.53;;;2.52;100.00
53758;BME280;39674;59.860;30.672;2023-03-25T13:28:03;98923.44;;;2.47;100.00
53758;BME280;39674;59.860;30.672;2023-03-25T13:30:56;98941.72;;;2.45;100.00
53758;BME280;39674;59.860;30.672;2023-03-25T13:33:34;98962.66;;;2.44;100.00
53758;BME280;39674;59.860;30.672;2023-03-25T13:36:25;98963.03;;;2.36;100.00
53758;BME280;39674;59.860;30.672;2023-03-25T13:39:24;98964.00;;;2.33;100.00
53758;BME280;39674;59.860;30.672;2023-03-25T13:41:55;98976.88;;;2.36;100.00
53758;BME280;39674;59.860;30.672;2023-03-25T13:44:49;98981.34;;;2.34;100.00
53758;BME280;39674;59.860;30.672;2023-03-25T13:47:24;98989.91;;;2.36;100.00
53758;BME280;39674;59.860;30.672;2023-03-25T13:50:02;98996.97;;;2.34;100.00
53758;BME280;39674;59.860;30.672;2023-03-25T13:52:48;99009.22;;;2.32;100.00
53758;BME280;39674;59.860;30.672;2023-03-25T13:55:54;99010.00;;;2.34;100.00
53758;BME280;39674;59.860;30.672;2023-03-25T14:01:28;99030.69;;;2.37;100.00
53758;BME280;39674;59.860;30.672;2023-03-25T14:13:05;99053.50;;;2.32;100.00
53758;BME280;39674;59.860;30.672;2023-03-25T14:15:42;99063.00;;;2.33;100.00
53758;BME280;39674;59.860;30.672;2023-03-25T14:18:22;99077.66;;;2.36;100.00
53758;BME280;39674;59.860;30.672;2023-03-25T14:20:58;99073.44;;;2.33;100.00
53758;BME280;39674;59.860;30.672;2023-03-25T14:23:44;99080.19;;;2.37;100.00
53758;BME280;39674;59.860;30.672;2023-03-25T14:26:15;99091.72;;;2.32;100.00
53758;BME280;39674;59.860;30.672;2023-03-25T14:29:07;99094.41;;;2.30;100.00
53758;BME280;39674;59.860;30.672;2023-03-25T14:31:39;99085.88;;;2.27;100.00
53758;BME280;39674;59.860;30.672;2023-03-25T14:34:30;99095.53;;;2.24;100.00
53758;BME280;39674;59.860;30.672;2023-03-25T14:40:00;99108.31;;;2.29;100.00
53758;BME280;39674;59.860;30.672;2023-03-25T14:43:00;99101.69;;;2.22;100.00
53758;BME280;39674;59.860;30.672;2023-03-25T14:48:35;99136.22;;;2.27;100.00
53758;BME280;39674;59.860;30.672;2023-03-25T14:51:17;99132.84;;;2.25;100.00
53758;BME280;39674;59.860;30.672;2023-03-25T14:53:49;99134.53;;;2.26;100.00